createdAt,value
2019-03-11T00:01:55.116Z,99.90
2019-03-11T00:04:26.511Z,99.90
2019-03-11T00:06:57.969Z,99.90
2019-03-11T00:09:28.804Z,99.90
2019-03-11T00:11:59.539Z,99.90
2019-03-11T00:14:30.309Z,99.90
2019-03-11T00:17:01.190Z,99.90
2019-03-11T00:19:32.169Z,99.90
2019-03-11T00:22:03.290Z,99.90
2019-03-11T00:24:34.138Z,99.90
2019-03-11T00:27:04.893Z,99.90
2019-03-11T00:29:35.594Z,99.90
2019-03-11T00:32:06.479Z,99.90
2019-03-11T00:34:37.564Z,99.90
2019-03-11T00:37:08.360Z,99.90
2019-03-11T00:39:39.204Z,99.90
2019-03-11T00:42:09.848Z,99.90
2019-03-11T00:44:40.673Z,99.90
2019-03-11T00:47:11.538Z,99.90
2019-03-11T00:49:42.269Z,99.90
2019-03-11T00:52:13.078Z,99.90
2019-03-11T00:54:44.173Z,99.90
2019-03-11T00:57:15.414Z,99.90
2019-03-11T00:59:46.221Z,99.90
2019-03-11T01:02:17.064Z,99.90
2019-03-11T01:04:48.194Z,99.90
2019-03-11T01:07:19.123Z,99.90
2019-03-11T01:09:49.919Z,99.90
2019-03-11T01:12:20.739Z,99.90
2019-03-11T01:14:51.395Z,99.90
2019-03-11T01:17:22.754Z,99.90
2019-03-11T01:19:53.489Z,99.90
2019-03-11T01:22:24.259Z,99.90
2019-03-11T01:24:55.303Z,99.90
2019-03-11T01:27:26.044Z,99.90
2019-03-11T01:29:57.390Z,99.90
2019-03-11T01:32:28.508Z,99.90
2019-03-11T01:34:59.414Z,99.90
2019-03-11T01:37:30.388Z,99.90
2019-03-11T01:40:01.300Z,99.90
2019-03-11T01:42:32.383Z,99.90
2019-03-11T01:45:03.086Z,99.90
2019-03-11T01:47:33.929Z,99.90
2019-03-11T01:50:05.184Z,99.90
2019-03-11T01:52:35.866Z,99.90
2019-03-11T01:55:07.301Z,99.90
2019-03-11T01:57:38.019Z,99.90
2019-03-11T02:00:11.419Z,99.90
2019-03-11T02:02:42.289Z,99.90
2019-03-11T02:05:13.125Z,99.90
2019-03-11T02:07:44.200Z,99.90
2019-03-11T02:10:22.299Z,99.90
2019-03-11T02:12:52.855Z,99.90
2019-03-11T02:15:24.004Z,99.90
2019-03-11T02:17:54.734Z,99.90
2019-03-11T02:20:25.559Z,99.90
2019-03-11T02:22:56.431Z,99.90
2019-03-11T02:25:27.229Z,99.90
2019-03-11T02:27:58.143Z,99.90
2019-03-11T02:30:28.890Z,99.90
2019-03-11T02:32:59.857Z,99.90
2019-03-11T02:35:31.549Z,99.90
2019-03-11T02:38:02.391Z,99.90
2019-03-11T02:40:33.230Z,99.90
2019-03-11T02:43:04.052Z,99.90
2019-03-11T02:45:35.020Z,99.90
2019-03-11T02:48:05.884Z,99.90
2019-03-11T02:50:36.711Z,99.90
2019-03-11T02:53:07.915Z,99.90
2019-03-11T02:55:38.753Z,99.90
2019-03-11T02:58:09.581Z,99.90
2019-03-11T03:00:40.381Z,99.90
2019-03-11T03:03:28.910Z,99.90
2019-03-11T03:06:04.228Z,99.90
2019-03-11T03:08:35.015Z,99.90
2019-03-11T03:11:06.164Z,99.90
2019-03-11T03:13:37.239Z,99.90
2019-03-11T03:16:08.491Z,99.90
2019-03-11T03:18:39.491Z,99.90
2019-03-11T03:21:10.355Z,99.90
2019-03-11T03:23:41.531Z,99.90
2019-03-11T03:26:12.381Z,99.90
2019-03-11T03:28:43.640Z,99.90
2019-03-11T03:31:14.487Z,99.90
2019-03-11T03:33:45.210Z,99.90
2019-03-11T03:36:16.589Z,99.90
2019-03-11T03:38:47.400Z,99.90
2019-03-11T03:41:18.263Z,99.90
2019-03-11T03:43:49.035Z,99.90
2019-03-11T03:46:19.857Z,99.90
2019-03-11T03:48:50.744Z,99.90
2019-03-11T03:51:21.484Z,99.90
2019-03-11T03:53:52.479Z,99.90
2019-03-11T03:56:49.594Z,99.90
2019-03-11T03:59:20.414Z,99.90
2019-03-11T04:01:51.631Z,99.90
2019-03-11T04:04:22.314Z,99.90
2019-03-11T04:06:53.428Z,99.90
2019-03-11T04:09:24.180Z,99.90
2019-03-11T04:11:55.231Z,99.90
2019-03-11T04:14:26.145Z,99.90
2019-03-11T04:16:56.930Z,99.90
2019-03-11T04:19:29.676Z,99.90
2019-03-11T04:22:00.315Z,99.90
2019-03-11T04:24:31.405Z,99.90
2019-03-11T04:27:06.510Z,99.90
2019-03-11T04:29:37.339Z,99.90
2019-03-11T04:32:08.510Z,99.90
2019-03-11T04:34:39.515Z,99.90
2019-03-11T04:37:10.454Z,99.90
2019-03-11T04:39:41.488Z,99.90
2019-03-11T04:42:12.254Z,99.90
2019-03-11T04:44:43.010Z,99.90
2019-03-11T04:47:13.839Z,99.90
2019-03-11T04:49:44.819Z,99.90
2019-03-11T04:52:15.794Z,99.90
2019-03-11T04:54:46.479Z,99.90
2019-03-11T04:57:17.669Z,99.90
2019-03-11T04:59:48.559Z,99.90
2019-03-11T05:02:19.509Z,99.90
2019-03-11T05:04:50.808Z,99.90
2019-03-11T05:07:21.640Z,99.90
2019-03-11T05:09:52.534Z,99.90
2019-03-11T05:12:23.549Z,99.90
2019-03-11T05:14:54.729Z,99.90
2019-03-11T05:17:25.710Z,99.90
2019-03-11T05:19:56.532Z,99.90
2019-03-11T05:22:27.665Z,99.90
2019-03-11T05:24:58.629Z,99.90
2019-03-11T05:27:29.939Z,99.90
2019-03-11T05:30:01.009Z,99.90
2019-03-11T05:32:32.554Z,99.90
2019-03-11T05:35:03.954Z,99.90
2019-03-11T05:37:35.399Z,99.90
2019-03-11T05:40:06.869Z,99.90
2019-03-11T05:42:37.665Z,99.90
2019-03-11T05:45:09.643Z,99.90
2019-03-11T05:47:41.919Z,99.90
2019-03-11T05:50:14.040Z,99.90
2019-03-11T05:52:45.341Z,99.90
2019-03-11T05:55:16.644Z,99.90
2019-03-11T05:57:47.474Z,99.90
2019-03-11T06:00:22.374Z,99.90
2019-03-11T06:02:53.072Z,99.90
2019-03-11T06:05:24.484Z,99.90
2019-03-11T06:07:55.614Z,99.90
2019-03-11T06:10:26.356Z,99.90
2019-03-11T06:12:57.100Z,99.90
2019-03-11T06:15:27.946Z,99.90
2019-03-11T06:17:58.765Z,99.90
2019-03-11T06:20:53.949Z,99.90
2019-03-11T06:23:25.104Z,99.90
2019-03-11T06:25:56.060Z,99.90
2019-03-11T06:28:27.102Z,99.90
2019-03-11T06:30:58.249Z,99.90
2019-03-11T06:33:29.359Z,99.90
2019-03-11T06:36:00.494Z,99.90
2019-03-11T06:38:31.199Z,99.90
2019-03-11T06:41:01.995Z,99.90
2019-03-11T06:43:33.014Z,99.90
2019-03-11T06:46:03.794Z,99.90
2019-03-11T06:48:34.804Z,99.90
2019-03-11T06:51:06.043Z,99.90
2019-03-11T06:53:36.814Z,99.90
2019-03-11T06:56:07.851Z,99.90
2019-03-11T06:58:39.089Z,99.90
2019-03-11T07:01:09.884Z,99.90
2019-03-11T07:03:40.865Z,99.90
2019-03-11T07:06:11.935Z,99.90
2019-03-11T07:08:42.666Z,99.90
2019-03-11T07:11:13.764Z,99.90
2019-03-11T07:13:45.115Z,99.90
2019-03-11T07:16:16.256Z,99.90
2019-03-11T07:18:47.084Z,99.90
2019-03-11T07:21:18.508Z,99.90
2019-03-11T07:23:49.469Z,99.90
2019-03-11T07:26:21.077Z,99.90
2019-03-11T07:28:52.189Z,99.90
2019-03-11T07:31:23.030Z,99.90
2019-03-11T07:33:54.074Z,99.90
2019-03-11T07:36:25.199Z,99.90
2019-03-11T07:38:56.380Z,99.90
2019-03-11T07:41:27.187Z,99.90
2019-03-11T07:43:58.334Z,99.90
2019-03-11T07:46:29.524Z,99.90
2019-03-11T07:49:00.294Z,99.90
2019-03-11T07:51:31.074Z,99.90
2019-03-11T07:54:02.129Z,99.90
2019-03-11T07:56:33.194Z,99.90
2019-03-11T07:59:04.268Z,99.90
2019-03-11T08:01:34.990Z,99.90
2019-03-11T08:04:06.469Z,99.90
2019-03-11T08:06:37.355Z,99.90
2019-03-11T08:09:09.284Z,99.90
2019-03-11T08:11:40.424Z,94.40
2019-03-11T08:14:11.270Z,93.30
2019-03-11T08:16:42.379Z,94.30
2019-03-11T08:19:13.704Z,79.20
2019-03-11T08:21:44.514Z,81.10
2019-03-11T08:24:16.763Z,73.70
2019-03-11T08:26:48.464Z,79.50
2019-03-11T08:29:19.559Z,84.40
2019-03-11T08:31:50.555Z,67.60
2019-03-11T08:34:22.008Z,79.50
2019-03-11T08:36:53.805Z,64.60
2019-03-11T08:39:24.647Z,67.80
2019-03-11T08:41:55.784Z,56.20
2019-03-11T08:44:27.199Z,57.70
2019-03-11T08:46:58.428Z,61.30
2019-03-11T08:49:29.219Z,59.70
2019-03-11T08:51:59.944Z,56.50
2019-03-11T08:54:30.749Z,61.60
2019-03-11T08:57:01.989Z,53.70
2019-03-11T08:59:32.834Z,55.10
2019-03-11T09:02:04.234Z,52.90
2019-03-11T09:04:35.194Z,52.90
2019-03-11T09:07:05.960Z,49.30
2019-03-11T09:09:36.925Z,49.20
2019-03-11T09:12:07.715Z,44.90
2019-03-11T09:14:38.525Z,44.80
2019-03-11T09:17:09.754Z,46.80
2019-03-11T09:19:40.724Z,42.80
2019-03-11T09:22:12.109Z,41.50
2019-03-11T09:24:43.508Z,40.60
2019-03-11T09:27:14.389Z,41.60
2019-03-11T09:29:45.248Z,40.40
2019-03-11T09:32:15.959Z,39.30
2019-03-11T09:34:46.945Z,39.00
2019-03-11T09:37:18.039Z,38.70
2019-03-11T09:39:49.069Z,37.30
2019-03-11T09:42:20.188Z,38.80
2019-03-11T09:44:51.068Z,37.40
2019-03-11T09:47:22.483Z,37.30
2019-03-11T09:49:53.834Z,37.20
2019-03-11T09:52:24.984Z,36.80
2019-03-11T09:54:56.519Z,35.60
2019-03-11T09:57:27.689Z,35.80
2019-03-11T09:59:58.904Z,36.10
2019-03-11T10:02:29.938Z,35.30
2019-03-11T10:05:00.593Z,35.90
2019-03-11T10:07:31.839Z,34.60
2019-03-11T10:10:03.029Z,33.80
2019-03-11T10:12:34.405Z,35.10
2019-03-11T10:15:05.803Z,35.80
2019-03-11T10:17:36.822Z,35.30
2019-03-11T10:20:08.089Z,32.90
2019-03-11T10:22:38.946Z,34.20
2019-03-11T10:25:10.209Z,35.10
2019-03-11T10:27:41.674Z,34.20
2019-03-11T10:30:14.160Z,33.60
2019-03-11T10:32:44.960Z,33.50
2019-03-11T10:35:30.864Z,32.80
2019-03-11T10:37:49.409Z,33.10
2019-03-11T10:40:21.585Z,33.70
2019-03-11T10:42:52.864Z,33.20
2019-03-11T10:45:30.986Z,33.00
2019-03-11T10:47:56.809Z,33.30
2019-03-11T10:50:27.719Z,34.00
2019-03-11T10:52:58.714Z,31.60
2019-03-11T10:55:29.747Z,33.80
2019-03-11T10:58:01.266Z,31.70
2019-03-11T11:00:32.399Z,32.50
2019-03-11T11:03:03.194Z,31.10
2019-03-11T11:05:34.389Z,31.60
2019-03-11T11:08:05.426Z,32.90
2019-03-11T11:10:36.730Z,32.80
2019-03-11T11:13:08.129Z,32.40
2019-03-11T11:15:39.380Z,32.00
2019-03-11T11:18:10.359Z,33.20
2019-03-11T11:20:41.239Z,33.30
2019-03-11T11:23:12.004Z,32.50
2019-03-11T11:25:42.844Z,32.70
2019-03-11T11:28:14.329Z,32.50
2019-03-11T11:30:45.439Z,31.70
2019-03-11T11:33:16.639Z,33.00
2019-03-11T11:35:48.044Z,30.90
2019-03-11T11:38:19.061Z,32.90
2019-03-11T11:40:49.984Z,33.10
2019-03-11T11:43:20.879Z,33.10
2019-03-11T11:45:51.863Z,31.90
2019-03-11T11:48:23.824Z,33.40
2019-03-11T11:50:55.212Z,33.20
2019-03-11T11:53:26.369Z,33.70
2019-03-11T11:55:58.208Z,34.00
2019-03-11T11:58:30.000Z,33.60
2019-03-11T12:01:00.828Z,34.00
2019-03-11T12:03:32.214Z,34.10
2019-03-11T12:06:03.404Z,35.30
2019-03-11T12:08:34.285Z,34.90
2019-03-11T12:11:05.254Z,34.00
2019-03-11T12:13:36.199Z,34.40
2019-03-11T12:16:07.807Z,34.10
2019-03-11T12:18:38.576Z,35.80
2019-03-11T12:21:09.449Z,34.60
2019-03-11T12:23:46.229Z,35.60
2019-03-11T12:26:13.082Z,37.40
2019-03-11T12:28:44.474Z,38.00
2019-03-11T12:31:15.364Z,39.90
2019-03-11T12:33:46.461Z,38.50
2019-03-11T12:36:17.439Z,40.10
2019-03-11T12:38:48.158Z,39.90
2019-03-11T12:41:19.280Z,40.30
2019-03-11T12:43:50.599Z,41.00
2019-03-11T12:46:21.844Z,40.60
2019-03-11T12:48:53.349Z,41.00
2019-03-11T12:51:24.093Z,41.50
2019-03-11T12:53:54.829Z,41.80
2019-03-11T12:56:25.614Z,42.00
2019-03-11T12:58:56.389Z,41.70
2019-03-11T13:01:27.694Z,42.40
2019-03-11T13:03:58.538Z,43.30
2019-03-11T13:06:29.559Z,42.60
2019-03-11T13:09:00.259Z,41.80
2019-03-11T13:11:31.054Z,42.80
2019-03-11T13:14:02.110Z,42.60
2019-03-11T13:16:32.949Z,42.70
2019-03-11T13:19:13.244Z,43.50
2019-03-11T13:21:39.593Z,43.20
2019-03-11T13:24:10.514Z,43.90
2019-03-11T13:26:41.904Z,44.30
2019-03-11T13:29:12.925Z,44.50
2019-03-11T13:31:44.235Z,41.60
2019-03-11T13:34:15.489Z,41.50
2019-03-11T13:36:46.859Z,42.00
2019-03-11T13:39:17.740Z,43.10
2019-03-11T13:41:48.824Z,41.00
2019-03-11T13:44:19.733Z,42.00
2019-03-11T13:46:50.530Z,42.80
2019-03-11T13:49:21.963Z,40.90
2019-03-11T13:51:53.120Z,40.90
2019-03-11T13:54:24.119Z,40.30
2019-03-11T13:56:55.529Z,41.00
2019-03-11T13:59:26.419Z,41.20
2019-03-11T14:01:57.139Z,41.60
2019-03-11T14:04:28.059Z,41.50
2019-03-11T14:06:59.884Z,42.90
2019-03-11T14:09:31.407Z,43.00
2019-03-11T14:12:02.219Z,43.00
2019-03-11T14:14:33.399Z,43.80
2019-03-11T14:17:04.774Z,43.30
2019-03-11T14:19:36.130Z,43.20
2019-03-11T14:22:07.715Z,43.90
2019-03-11T14:24:38.519Z,44.00
2019-03-11T14:27:09.739Z,44.30
2019-03-11T14:29:41.050Z,43.90
2019-03-11T14:32:12.870Z,43.20
2019-03-11T14:34:45.244Z,44.10
2019-03-11T14:37:16.299Z,44.60
2019-03-11T14:39:47.423Z,45.90
2019-03-11T14:42:18.200Z,43.70
2019-03-11T14:44:48.888Z,43.00
2019-03-11T14:47:20.724Z,41.80
2019-03-11T14:49:51.693Z,41.20
2019-03-11T14:52:23.003Z,41.10
2019-03-11T14:54:54.069Z,41.70
2019-03-11T14:57:25.299Z,42.70
2019-03-11T14:59:56.378Z,42.80
2019-03-11T15:02:27.519Z,42.90
2019-03-11T15:04:58.759Z,43.90
2019-03-11T15:07:29.518Z,44.90
2019-03-11T15:10:00.349Z,44.10
2019-03-11T15:12:31.409Z,44.90
2019-03-11T15:15:02.144Z,44.90
2019-03-11T15:17:33.174Z,45.30
2019-03-11T15:20:04.064Z,46.00
2019-03-11T15:22:35.843Z,45.60
2019-03-11T15:25:07.329Z,45.70
2019-03-11T15:27:38.349Z,44.30
2019-03-11T15:30:10.943Z,41.70
2019-03-11T15:32:42.173Z,40.80
2019-03-11T15:35:13.319Z,41.50
2019-03-11T15:37:44.179Z,41.40
2019-03-11T15:40:16.372Z,40.80
2019-03-11T15:42:47.839Z,40.00
2019-03-11T15:45:18.869Z,37.20
2019-03-11T15:47:49.809Z,37.80
2019-03-11T15:50:23.403Z,39.70
2019-03-11T15:52:54.416Z,38.50
2019-03-11T15:55:25.684Z,40.40
2019-03-11T15:57:56.473Z,40.50
2019-03-11T16:00:27.299Z,41.00
2019-03-11T16:02:58.505Z,41.90
2019-03-11T16:05:29.859Z,40.30
2019-03-11T16:08:00.604Z,38.60
2019-03-11T16:10:31.703Z,37.30
2019-03-11T16:13:03.014Z,38.30
2019-03-11T16:15:34.164Z,39.00
2019-03-11T16:18:05.204Z,39.40
2019-03-11T16:20:36.329Z,40.20
2019-03-11T16:23:07.105Z,40.30
2019-03-11T16:25:37.859Z,40.40
2019-03-11T16:28:08.763Z,40.30
2019-03-11T16:30:40.183Z,40.90
2019-03-11T16:33:11.248Z,40.50
2019-03-11T16:35:42.029Z,41.60
2019-03-11T16:38:12.879Z,41.40
2019-03-11T16:40:43.529Z,41.80
2019-03-11T16:43:14.544Z,40.30
2019-03-11T16:45:45.384Z,38.90
2019-03-11T16:48:16.084Z,38.80
2019-03-11T16:50:47.384Z,38.00
2019-03-11T16:53:18.372Z,38.20
2019-03-11T16:55:51.070Z,37.60
2019-03-11T16:58:23.368Z,38.80
2019-03-11T17:00:56.623Z,38.80
2019-03-11T17:03:27.514Z,38.70
2019-03-11T17:05:58.610Z,37.90
2019-03-11T17:08:29.374Z,38.50
2019-03-11T17:11:00.285Z,40.20
2019-03-11T17:13:31.279Z,40.80
2019-03-11T17:16:02.693Z,41.00
2019-03-11T17:18:34.764Z,40.60
2019-03-11T17:21:06.599Z,40.30
2019-03-11T17:23:37.569Z,41.10
2019-03-11T17:26:08.600Z,41.90
2019-03-11T17:28:39.571Z,42.20
2019-03-11T17:31:10.463Z,41.90
2019-03-11T17:33:42.692Z,41.80
2019-03-11T17:36:14.139Z,42.80
2019-03-11T17:38:45.085Z,43.80
2019-03-11T17:41:15.990Z,44.00
2019-03-11T17:43:46.970Z,44.00
2019-03-11T17:46:17.944Z,44.00
2019-03-11T17:48:49.324Z,44.10
2019-03-11T17:51:20.500Z,43.50
2019-03-11T17:53:51.577Z,42.40
2019-03-11T17:56:22.514Z,42.80
2019-03-11T17:58:53.234Z,43.00
2019-03-11T18:01:24.129Z,42.70
2019-03-11T18:03:54.974Z,42.80
2019-03-11T18:06:25.874Z,42.90
2019-03-11T18:08:56.649Z,43.20
2019-03-11T18:11:27.439Z,43.10
2019-03-11T18:13:58.254Z,43.60
2019-03-11T18:16:29.067Z,44.90
2019-03-11T18:19:00.025Z,44.90
2019-03-11T18:21:30.919Z,44.70
2019-03-11T18:24:01.914Z,44.90
2019-03-11T18:26:32.724Z,45.60
2019-03-11T18:29:03.714Z,45.60
2019-03-11T18:31:34.662Z,46.20
2019-03-11T18:34:05.449Z,45.50
2019-03-11T18:36:37.168Z,45.60
2019-03-11T18:39:10.927Z,46.70
2019-03-11T18:41:42.453Z,46.80
2019-03-11T18:44:13.601Z,46.30
2019-03-11T18:46:45.768Z,47.30
2019-03-11T18:49:16.755Z,47.80
2019-03-11T18:51:47.564Z,48.20
2019-03-11T18:54:18.468Z,48.90
2019-03-11T18:56:49.548Z,48.90
2019-03-11T18:59:20.391Z,48.90
2019-03-11T19:01:51.326Z,49.10
2019-03-11T19:04:22.302Z,49.40
2019-03-11T19:06:53.354Z,49.50
2019-03-11T19:09:24.183Z,49.20
2019-03-11T19:11:55.195Z,49.30
2019-03-11T19:14:26.109Z,50.40
2019-03-11T19:16:56.940Z,50.70
2019-03-11T19:19:28.095Z,50.00
2019-03-11T19:21:59.285Z,50.80
2019-03-11T19:24:30.725Z,50.10
2019-03-11T19:27:01.998Z,50.40
2019-03-11T19:29:33.014Z,50.10
2019-03-11T19:32:05.595Z,50.50
2019-03-11T19:34:36.552Z,49.60
2019-03-11T19:37:07.470Z,49.30
2019-03-11T19:39:38.514Z,49.30
2019-03-11T19:42:09.405Z,50.00
2019-03-11T19:44:40.416Z,50.60
2019-03-11T19:47:11.760Z,50.50
2019-03-11T19:49:42.953Z,50.20
2019-03-11T19:52:14.454Z,50.30
2019-03-11T19:54:45.563Z,50.70
2019-03-11T19:57:16.874Z,51.00
2019-03-11T19:59:48.176Z,51.20
2019-03-11T20:02:19.163Z,51.50
2019-03-11T20:04:50.512Z,50.70
2019-03-11T20:07:21.862Z,51.30
2019-03-11T20:09:53.024Z,51.20
2019-03-11T20:12:24.274Z,52.00
2019-03-11T20:14:56.055Z,52.50
2019-03-11T20:17:27.928Z,52.80
2019-03-11T20:19:59.220Z,53.20
2019-03-11T20:22:30.354Z,53.40
2019-03-11T20:25:02.332Z,52.60
2019-03-11T20:27:33.980Z,53.10
2019-03-11T20:30:06.235Z,53.00
2019-03-11T20:32:37.665Z,53.30
2019-03-11T20:35:12.764Z,54.50
2019-03-11T20:37:45.002Z,54.50
2019-03-11T20:40:18.051Z,53.90
2019-03-11T20:42:48.953Z,54.40
2019-03-11T20:45:20.096Z,55.10
2019-03-11T20:47:51.530Z,56.30
2019-03-11T20:50:22.686Z,56.40
2019-03-11T20:52:53.944Z,57.50
2019-03-11T20:55:26.599Z,56.90
2019-03-11T20:57:57.669Z,56.00
2019-03-11T21:00:29.708Z,55.90
2019-03-11T21:03:00.719Z,57.20
2019-03-11T21:05:34.183Z,56.70
2019-03-11T21:08:05.219Z,56.20
2019-03-11T21:10:36.316Z,56.30
2019-03-11T21:13:07.896Z,56.40
2019-03-11T21:15:39.140Z,56.00
2019-03-11T21:18:10.128Z,56.40
2019-03-11T21:20:41.148Z,56.00
2019-03-11T21:23:12.125Z,55.20
2019-03-11T21:25:43.045Z,56.20
2019-03-11T21:28:14.314Z,56.40
2019-03-11T21:30:45.520Z,56.50
2019-03-11T21:33:16.900Z,57.00
2019-03-11T21:35:47.723Z,57.20
2019-03-11T21:38:18.818Z,56.70
2019-03-11T21:40:49.949Z,59.70
2019-03-11T21:43:20.919Z,58.40
2019-03-11T21:45:52.230Z,59.30
2019-03-11T21:48:23.251Z,61.30
2019-03-11T21:50:54.232Z,58.50
2019-03-11T21:53:25.612Z,59.60
2019-03-11T21:55:56.445Z,61.10
2019-03-11T21:58:27.482Z,61.50
2019-03-11T22:00:58.464Z,62.40
2019-03-11T22:03:29.403Z,63.80
2019-03-11T22:06:00.279Z,65.00
2019-03-11T22:08:31.308Z,68.10
2019-03-11T22:11:02.338Z,68.00
2019-03-11T22:13:33.278Z,69.10
2019-03-11T22:16:04.172Z,69.20
2019-03-11T22:18:35.014Z,70.50
2019-03-11T22:21:05.728Z,71.90
2019-03-11T22:23:36.644Z,75.00
2019-03-11T22:26:07.719Z,74.50
2019-03-11T22:28:38.444Z,76.10
2019-03-11T22:31:09.265Z,75.00
2019-03-11T22:33:40.179Z,73.30
2019-03-11T22:36:11.138Z,74.50
2019-03-11T22:38:42.029Z,74.90
2019-03-11T22:41:12.944Z,73.80
2019-03-11T22:43:43.745Z,73.60
2019-03-11T22:46:14.518Z,70.10
2019-03-11T22:48:45.289Z,73.40
2019-03-11T22:51:16.188Z,71.30
2019-03-11T22:53:46.939Z,71.20
2019-03-11T22:56:17.718Z,72.00
2019-03-11T22:58:48.513Z,71.50
2019-03-11T23:01:21.018Z,70.10
2019-03-11T23:03:51.773Z,71.90
2019-03-11T23:06:22.499Z,75.40
2019-03-11T23:08:53.420Z,78.80
2019-03-11T23:11:24.198Z,84.20
2019-03-11T23:13:54.858Z,89.40
2019-03-11T23:16:25.598Z,90.70
2019-03-11T23:18:56.344Z,91.00
2019-03-11T23:21:27.198Z,91.20
2019-03-11T23:23:58.023Z,91.40
2019-03-11T23:26:28.794Z,92.30
2019-03-11T23:28:59.673Z,93.30
2019-03-11T23:31:30.433Z,93.10
2019-03-11T23:34:01.304Z,91.30
2019-03-11T23:36:32.354Z,90.00
2019-03-11T23:39:03.118Z,84.90
2019-03-11T23:41:33.894Z,86.40
2019-03-11T23:44:04.584Z,87.40
2019-03-11T23:46:35.773Z,88.60
2019-03-11T23:49:07.024Z,84.50
2019-03-11T23:51:38.143Z,82.70
2019-03-11T23:54:08.899Z,84.30
2019-03-11T23:56:39.633Z,82.70
2019-03-11T23:59:10.699Z,82.10
